createdAt,value
2019-04-06T04:31:36.985Z,70.40
2019-04-06T04:34:05.562Z,70.40
2019-04-06T04:36:34.119Z,70.00
2019-04-06T04:39:05.339Z,69.90
2019-04-06T04:41:33.967Z,70.00
2019-04-06T04:44:02.524Z,70.00
2019-04-06T04:46:30.968Z,70.20
2019-04-06T04:48:59.574Z,70.30
2019-04-06T04:51:28.173Z,70.40
2019-04-06T04:53:56.601Z,70.70
2019-04-06T04:56:25.035Z,70.60
2019-04-06T04:58:53.459Z,70.50
2019-04-06T05:01:21.896Z,70.40
2019-04-06T05:03:50.325Z,71.10
2019-04-06T05:06:18.768Z,71.10
2019-04-06T05:08:47.215Z,71.00
2019-04-06T05:11:15.791Z,71.20
2019-04-06T05:13:44.255Z,70.70
2019-04-06T05:16:13.533Z,70.80
2019-04-06T05:18:43.287Z,70.80
2019-04-06T05:21:12.256Z,71.20
2019-04-06T05:23:40.871Z,71.10
2019-04-06T05:26:11.224Z,71.00
2019-04-06T05:28:39.784Z,70.80
2019-04-06T05:31:08.240Z,70.60
2019-04-06T05:33:36.664Z,71.20
2019-04-06T05:36:05.264Z,70.20
2019-04-06T05:38:33.714Z,70.20
2019-04-06T05:41:02.637Z,69.80
2019-04-06T05:43:31.068Z,69.90
2019-04-06T05:45:59.508Z,70.10
2019-04-06T05:48:28.012Z,70.40
2019-04-06T05:50:56.456Z,70.50
2019-04-06T05:53:24.960Z,70.20
2019-04-06T05:55:53.494Z,69.80
2019-04-06T05:58:21.999Z,69.80
2019-04-06T06:00:50.459Z,69.60
2019-04-06T06:03:18.941Z,69.50
2019-04-06T06:05:47.365Z,69.80
2019-04-06T06:08:15.807Z,69.80
2019-04-06T06:10:44.235Z,69.80
2019-04-06T06:13:12.659Z,70.30
2019-04-06T06:15:41.083Z,69.60
2019-04-06T06:18:09.764Z,70.50
2019-04-06T06:20:38.294Z,69.50
2019-04-06T06:23:06.722Z,69.10
2019-04-06T06:25:35.152Z,69.00
2019-04-06T06:28:13.727Z,68.70
2019-04-06T06:30:33.732Z,68.70
2019-04-06T06:33:02.177Z,68.90
2019-04-06T06:35:30.616Z,68.40
2019-04-06T06:37:59.045Z,68.60
2019-04-06T06:40:27.590Z,68.30
2019-04-06T06:42:56.080Z,67.90
2019-04-06T06:45:24.711Z,67.30
2019-04-06T06:47:53.344Z,67.10
2019-04-06T06:50:21.827Z,66.40
2019-04-06T06:52:50.271Z,65.90
2019-04-06T06:55:18.724Z,65.80
2019-04-06T06:57:47.221Z,65.10
2019-04-06T07:00:15.985Z,65.00
2019-04-06T07:02:44.417Z,64.40
2019-04-06T07:05:12.933Z,64.10
2019-04-06T07:07:41.456Z,63.60
2019-04-06T07:10:10.265Z,63.50
2019-04-06T07:12:38.696Z,63.20
2019-04-06T07:15:07.619Z,63.10
2019-04-06T07:17:36.413Z,63.60
2019-04-06T07:20:07.072Z,63.80
2019-04-06T07:22:35.536Z,63.70
2019-04-06T07:25:05.308Z,63.80
2019-04-06T07:27:33.743Z,63.70
2019-04-06T07:30:02.260Z,63.90
2019-04-06T07:32:30.776Z,63.20
2019-04-06T07:34:59.336Z,62.00
2019-04-06T07:37:27.811Z,61.00
2019-04-06T07:39:56.301Z,59.00
2019-04-06T07:42:24.740Z,58.90
2019-04-06T07:44:53.320Z,57.90
2019-04-06T07:47:21.884Z,57.30
2019-04-06T07:49:50.485Z,56.50
2019-04-06T07:52:19.294Z,54.50
2019-04-06T07:54:49.372Z,54.30
2019-04-06T07:57:18.089Z,54.40
2019-04-06T07:59:46.779Z,53.70
2019-04-06T08:02:15.283Z,52.10
2019-04-06T08:04:43.730Z,51.80
2019-04-06T08:07:12.203Z,51.70
2019-04-06T08:09:42.997Z,50.90
2019-04-06T08:12:11.647Z,50.80
2019-04-06T08:14:40.393Z,48.80
2019-04-06T08:17:08.911Z,48.50
2019-04-06T08:19:37.556Z,47.10
2019-04-06T08:22:06.238Z,46.30
2019-04-06T08:24:34.907Z,44.60
2019-04-06T08:27:03.852Z,42.90
2019-04-06T08:29:32.415Z,42.10
2019-04-06T08:32:01.052Z,42.10
2019-04-06T08:34:29.576Z,41.00
2019-04-06T08:36:58.089Z,40.20
2019-04-06T08:39:26.830Z,40.80
2019-04-06T08:41:55.437Z,41.50
2019-04-06T08:44:23.904Z,40.70
2019-04-06T08:46:52.453Z,42.50
2019-04-06T08:49:20.872Z,41.80
2019-04-06T08:51:49.317Z,42.10
2019-04-06T08:54:17.752Z,41.30
2019-04-06T08:56:46.193Z,41.30
2019-04-06T08:59:14.633Z,41.00
2019-04-06T09:01:43.107Z,42.30
2019-04-06T09:04:11.810Z,42.30
2019-04-06T09:06:40.287Z,43.70
2019-04-06T09:09:08.779Z,44.70
2019-04-06T09:11:37.253Z,46.30
2019-04-06T09:14:05.926Z,44.80
2019-04-06T09:16:34.483Z,45.20
2019-04-06T09:19:03.037Z,46.10
2019-04-06T09:21:31.698Z,46.00
2019-04-06T09:24:00.193Z,46.40
2019-04-06T09:26:28.863Z,46.40
2019-04-06T09:28:59.442Z,46.00
2019-04-06T09:31:27.580Z,44.70
2019-04-06T09:33:56.072Z,43.20
2019-04-06T09:36:24.527Z,41.90
2019-04-06T09:38:53.084Z,41.70
2019-04-06T09:41:21.744Z,40.30
2019-04-06T09:43:50.236Z,39.20
2019-04-06T09:46:23.333Z,38.90
2019-04-06T09:48:56.307Z,38.50
2019-04-06T09:51:26.395Z,37.70
2019-04-06T09:54:08.399Z,36.00
2019-04-06T09:56:41.555Z,37.50
2019-04-06T09:59:14.860Z,36.60
2019-04-06T10:01:44.941Z,36.70
2019-04-06T10:04:31.556Z,36.60
2019-04-06T10:07:01.681Z,37.40
2019-04-06T10:09:31.786Z,36.00
2019-04-06T10:12:18.523Z,36.00
2019-04-06T10:15:00.846Z,37.30
2019-04-06T10:17:42.803Z,37.20
2019-04-06T10:20:19.629Z,38.00
2019-04-06T10:23:02.320Z,38.20
2019-04-06T10:25:32.721Z,38.50
2019-04-06T10:28:02.953Z,37.30
2019-04-06T10:30:35.735Z,36.20
2019-04-06T10:33:08.660Z,35.40
2019-04-06T10:35:41.445Z,33.70
2019-04-06T10:38:27.900Z,31.60
2019-04-06T10:40:57.978Z,31.40
2019-04-06T10:43:28.234Z,31.50
2019-04-06T10:46:01.303Z,31.40
2019-04-06T10:48:31.521Z,31.50
2019-04-06T10:51:16.679Z,31.00
2019-04-06T10:54:05.175Z,30.50
2019-04-06T10:56:35.304Z,30.30
2019-04-06T10:59:20.433Z,29.90
2019-04-06T11:01:59.816Z,29.80
2019-04-06T11:04:46.423Z,28.90
2019-04-06T11:07:16.504Z,30.00
2019-04-06T11:09:49.637Z,30.20
2019-04-06T11:12:22.766Z,29.80
2019-04-06T11:15:05.013Z,30.20
2019-04-06T11:17:51.695Z,30.80
2019-04-06T11:20:24.788Z,30.20
2019-04-06T11:23:03.632Z,30.50
2019-04-06T11:25:45.720Z,30.80
2019-04-06T11:28:27.612Z,30.60
2019-04-06T11:30:57.698Z,30.10
2019-04-06T11:33:39.800Z,31.90
2019-04-06T11:36:18.644Z,33.30
2019-04-06T11:38:48.747Z,30.80
2019-04-06T11:41:27.887Z,30.80
2019-04-06T11:44:00.503Z,32.10
2019-04-06T11:46:36.268Z,32.20
2019-04-06T11:49:12.630Z,31.60
2019-04-06T11:51:51.959Z,31.00
2019-04-06T11:54:38.692Z,30.80
2019-04-06T11:57:15.130Z,30.60
2019-04-06T11:59:54.439Z,30.80
2019-04-06T12:02:27.422Z,30.40
2019-04-06T12:05:15.886Z,31.40
2019-04-06T12:07:52.076Z,32.90
2019-04-06T12:10:25.055Z,30.80
2019-04-06T12:12:56.234Z,33.90
2019-04-06T12:15:42.898Z,32.40
2019-04-06T12:18:28.293Z,33.10
2019-04-06T12:21:05.866Z,32.40
2019-04-06T12:23:38.684Z,34.20
2019-04-06T12:26:25.325Z,33.00
2019-04-06T12:29:11.476Z,34.90
2019-04-06T12:31:53.895Z,34.80
2019-04-06T12:34:38.379Z,34.80
2019-04-06T12:37:14.584Z,34.90
2019-04-06T12:39:52.527Z,33.90
2019-04-06T12:42:26.805Z,34.20
2019-04-06T12:44:56.940Z,36.60
2019-04-06T12:47:39.349Z,35.70
2019-04-06T12:50:09.735Z,34.30
2019-04-06T12:52:42.968Z,34.90
2019-04-06T12:55:16.110Z,34.80
2019-04-06T12:58:03.351Z,34.10
2019-04-06T13:00:33.513Z,34.10
2019-04-06T13:03:06.783Z,34.50
2019-04-06T13:05:52.046Z,35.50
2019-04-06T13:08:31.515Z,34.30
2019-04-06T13:11:07.180Z,34.10
2019-04-06T13:13:37.643Z,34.30
2019-04-06T13:16:10.887Z,35.10
2019-04-06T13:18:41.080Z,34.60
2019-04-06T13:21:27.362Z,34.10
2019-04-06T13:24:00.169Z,33.80
2019-04-06T13:26:36.384Z,34.10
2019-04-06T13:29:06.964Z,33.90
2019-04-06T13:31:40.503Z,35.10
2019-04-06T13:34:16.403Z,34.00
2019-04-06T13:36:52.535Z,35.30
2019-04-06T13:39:22.642Z,33.50
2019-04-06T13:42:08.891Z,34.10
2019-04-06T13:44:41.666Z,34.00
2019-04-06T13:47:18.044Z,33.40
2019-04-06T13:50:04.837Z,34.40
2019-04-06T13:52:35.267Z,33.90
2019-04-06T13:55:10.520Z,37.40
2019-04-06T13:57:49.819Z,34.10
2019-04-06T14:00:25.994Z,34.90
2019-04-06T14:03:05.110Z,36.30
2019-04-06T14:05:47.492Z,35.60
2019-04-06T14:08:34.193Z,35.60
2019-04-06T14:11:20.957Z,36.70
2019-04-06T14:14:06.302Z,38.30
2019-04-06T14:16:45.161Z,37.20
2019-04-06T14:19:24.200Z,39.60
2019-04-06T14:22:03.487Z,39.70
2019-04-06T14:24:33.827Z,37.70
2019-04-06T14:27:16.340Z,37.90
2019-04-06T14:29:58.439Z,38.20
2019-04-06T14:32:44.695Z,40.30
2019-04-06T14:35:31.518Z,38.90
2019-04-06T14:38:13.804Z,38.50
2019-04-06T14:40:46.680Z,40.10
2019-04-06T14:43:29.018Z,40.60
2019-04-06T14:46:02.394Z,40.10
2019-04-06T14:48:42.089Z,39.80
2019-04-06T14:51:12.271Z,40.00
2019-04-06T14:53:51.277Z,39.50
2019-04-06T14:56:30.182Z,40.40
2019-04-06T14:59:06.273Z,39.60
2019-04-06T15:01:56.770Z,40.90
2019-04-06T15:04:22.936Z,41.10
2019-04-06T15:06:55.960Z,40.80
2019-04-06T15:09:41.496Z,40.10
2019-04-06T15:12:28.141Z,40.00
2019-04-06T15:14:58.376Z,40.30
2019-04-06T15:17:34.053Z,40.80
2019-04-06T15:20:06.725Z,41.30
2019-04-06T15:22:51.618Z,41.10
2019-04-06T15:25:38.310Z,40.80
2019-04-06T15:28:17.620Z,40.90
2019-04-06T15:30:55.607Z,41.20
2019-04-06T15:33:34.623Z,40.70
2019-04-06T15:36:04.943Z,40.90
2019-04-06T15:38:35.188Z,40.70
2019-04-06T15:41:05.296Z,40.40
2019-04-06T15:43:51.397Z,40.60
2019-04-06T15:46:39.728Z,40.50
2019-04-06T15:49:10.191Z,41.00
2019-04-06T15:51:49.418Z,41.70
2019-04-06T15:54:31.734Z,41.60
2019-04-06T15:57:18.296Z,42.00
2019-04-06T15:59:48.405Z,42.60
2019-04-06T16:02:27.055Z,42.20
2019-04-06T16:05:02.989Z,43.20
2019-04-06T16:07:49.821Z,43.70
2019-04-06T16:10:25.863Z,43.00
2019-04-06T16:13:07.595Z,42.80
2019-04-06T16:15:38.127Z,43.20
2019-04-06T16:18:23.758Z,43.30
2019-04-06T16:21:09.915Z,44.00
2019-04-06T16:23:50.380Z,42.80
2019-04-06T16:26:36.016Z,43.00
2019-04-06T16:29:22.550Z,43.90
2019-04-06T16:32:10.705Z,43.60
2019-04-06T16:34:36.177Z,43.70
2019-04-06T16:37:22.700Z,43.30
2019-04-06T16:39:58.748Z,43.50
2019-04-06T16:42:41.093Z,43.80
2019-04-06T16:45:11.534Z,43.70
2019-04-06T16:47:47.894Z,43.70
2019-04-06T16:50:18.176Z,43.60
2019-04-06T16:52:57.828Z,43.50
2019-04-06T16:55:44.644Z,43.80
2019-04-06T16:58:23.756Z,43.70
2019-04-06T17:01:09.158Z,43.70
2019-04-06T17:03:55.642Z,43.70
2019-04-06T17:06:28.541Z,44.80
2019-04-06T17:09:01.323Z,44.50
2019-04-06T17:11:31.413Z,45.50
2019-04-06T17:14:04.407Z,44.90
2019-04-06T17:16:37.346Z,45.10
2019-04-06T17:19:16.650Z,45.10
2019-04-06T17:22:03.219Z,45.80
2019-04-06T17:24:50.287Z,45.00
2019-04-06T17:27:23.350Z,44.50
2019-04-06T17:29:53.448Z,44.70
2019-04-06T17:32:35.581Z,45.40
2019-04-06T17:35:00.519Z,44.80
2019-04-06T17:37:30.762Z,46.20
2019-04-06T17:40:01.274Z,46.20
2019-04-06T17:42:40.242Z,46.40
2019-04-06T17:45:27.660Z,46.70
2019-04-06T17:48:13.535Z,47.00
2019-04-06T17:50:43.733Z,47.60
2019-04-06T17:53:29.784Z,48.10
2019-04-06T17:56:05.799Z,48.20
2019-04-06T17:58:42.005Z,49.10
2019-04-06T18:01:15.002Z,48.90
2019-04-06T18:03:51.100Z,49.40
2019-04-06T18:06:36.306Z,49.80
2019-04-06T18:09:25.960Z,50.10
2019-04-06T18:11:58.794Z,51.20
2019-04-06T18:14:27.253Z,51.10
2019-04-06T18:16:55.697Z,51.30
2019-04-06T18:19:24.148Z,52.00
2019-04-06T18:21:52.861Z,51.80
2019-04-06T18:24:21.463Z,53.20
2019-04-06T18:26:50.051Z,53.20
2019-04-06T18:29:18.533Z,52.80
2019-04-06T18:32:00.603Z,52.70
2019-04-06T18:34:29.066Z,52.30
2019-04-06T18:37:01.566Z,52.80
2019-04-06T18:39:30.186Z,52.60
2019-04-06T18:41:58.708Z,53.10
2019-04-06T18:44:27.437Z,53.20
2019-04-06T18:46:56.619Z,53.40
2019-04-06T18:49:26.000Z,53.40
2019-04-06T18:51:54.657Z,53.70
2019-04-06T18:54:23.216Z,54.20
2019-04-06T18:56:51.746Z,54.20
2019-04-06T18:59:20.619Z,54.40
2019-04-06T19:01:49.548Z,54.50
2019-04-06T19:04:18.089Z,54.00
2019-04-06T19:06:46.675Z,54.40
2019-04-06T19:09:23.068Z,54.20
2019-04-06T19:11:54.286Z,54.00
2019-04-06T19:14:20.302Z,54.20
2019-04-06T19:16:56.304Z,54.90
2019-04-06T19:19:29.690Z,54.40
2019-04-06T19:22:01.422Z,54.40
2019-04-06T19:24:31.427Z,54.30
2019-04-06T19:27:01.026Z,54.50
2019-04-06T19:29:32.874Z,55.00
2019-04-06T19:32:03.406Z,55.40
2019-04-06T19:34:34.468Z,54.70
2019-04-06T19:37:03.689Z,54.80
2019-04-06T19:39:32.164Z,54.90
2019-04-06T19:42:00.632Z,55.10
2019-04-06T19:44:31.568Z,55.20
2019-04-06T19:47:03.516Z,55.60
2019-04-06T19:49:34.313Z,56.20
2019-04-06T19:52:04.867Z,55.90
2019-04-06T19:54:34.452Z,56.00
2019-04-06T19:57:04.444Z,56.00
2019-04-06T19:59:40.973Z,56.40
2019-04-06T20:02:12.493Z,56.40
2019-04-06T20:04:41.225Z,56.40
2019-04-06T20:07:13.083Z,57.50
2019-04-06T20:09:42.477Z,56.50
2019-04-06T20:12:12.539Z,56.60
2019-04-06T20:14:41.106Z,56.70
2019-04-06T20:17:09.670Z,56.70
2019-04-06T20:19:38.264Z,56.50
2019-04-06T20:22:07.640Z,56.70
2019-04-06T20:24:36.361Z,57.20
2019-04-06T20:27:05.253Z,56.50
2019-04-06T20:29:34.150Z,56.60
2019-04-06T20:32:03.207Z,56.60
2019-04-06T20:34:33.661Z,56.50
2019-04-06T20:37:04.736Z,56.90
2019-04-06T20:39:36.041Z,56.90
2019-04-06T20:42:07.947Z,57.30
2019-04-06T20:44:40.859Z,57.50
2019-04-06T20:47:10.812Z,57.70
2019-04-06T20:49:41.721Z,57.80
2019-04-06T20:52:11.733Z,57.90
2019-04-06T20:54:41.852Z,57.80
2019-04-06T20:57:10.897Z,57.70
2019-04-06T20:59:39.563Z,57.60
2019-04-06T21:02:08.186Z,57.70
2019-04-06T21:04:36.731Z,57.60
2019-04-06T21:07:05.508Z,57.20
2019-04-06T21:09:36.723Z,57.50
2019-04-06T21:12:06.048Z,57.50
2019-04-06T21:14:35.079Z,57.80
2019-04-06T21:17:04.219Z,57.90
2019-04-06T21:19:32.767Z,58.60
2019-04-06T21:22:01.396Z,59.00
2019-04-06T21:24:30.044Z,59.50
2019-04-06T21:26:58.715Z,58.90
2019-04-06T21:29:27.932Z,59.40
2019-04-06T21:31:56.493Z,58.90
2019-04-06T21:34:24.995Z,59.00
2019-04-06T21:36:53.721Z,60.10
2019-04-06T21:39:22.415Z,61.20
2019-04-06T21:41:50.902Z,60.50
2019-04-06T21:44:20.346Z,60.90
2019-04-06T21:46:49.594Z,61.70
2019-04-06T21:49:18.970Z,63.00
2019-04-06T21:51:48.608Z,62.70
2019-04-06T21:54:17.603Z,62.40
2019-04-06T21:56:46.782Z,62.40
2019-04-06T21:59:16.776Z,63.40
2019-04-06T22:01:46.465Z,63.50
2019-04-06T22:04:23.688Z,63.80
2019-04-06T22:06:45.247Z,63.80
2019-04-06T22:09:14.043Z,63.40
2019-04-06T22:11:42.510Z,64.90
2019-04-06T22:14:11.020Z,64.80
2019-04-06T22:16:39.479Z,65.00
2019-04-06T22:19:07.981Z,64.10
2019-04-06T22:21:36.440Z,64.30
2019-04-06T22:24:05.522Z,64.50
2019-04-06T22:26:34.057Z,64.30
2019-04-06T22:29:02.722Z,64.80
2019-04-06T22:31:31.268Z,64.30
2019-04-06T22:33:59.693Z,65.00
2019-04-06T22:36:28.147Z,65.40
2019-04-06T22:38:57.207Z,65.30
2019-04-06T22:41:26.313Z,65.80
2019-04-06T22:43:55.028Z,64.80
2019-04-06T22:46:24.151Z,64.70
2019-04-06T22:48:52.588Z,64.40
2019-04-06T22:51:21.096Z,64.60
2019-04-06T22:53:49.527Z,63.70
2019-04-06T22:56:17.978Z,63.40
2019-04-06T22:58:46.489Z,64.10
2019-04-06T23:01:17.403Z,63.90
2019-04-06T23:04:04.203Z,63.70
2019-04-06T23:06:34.280Z,63.60
2019-04-06T23:09:03.238Z,64.50
2019-04-06T23:11:31.869Z,64.80
2019-04-06T23:14:00.857Z,64.80
2019-04-06T23:16:29.877Z,65.90
2019-04-06T23:18:58.778Z,65.30
2019-04-06T23:21:27.377Z,65.20
2019-04-06T23:23:55.807Z,64.60
2019-04-06T23:26:24.235Z,64.60
2019-04-06T23:28:52.777Z,65.30
